Time;durP1;ratioP1;P1;durP2;ratioP2;P2;SDS_P1;SDS_P2;PMS_P1;PMS_P2;Temp;Humidity;BMP_temperature;BMP_pressure;BME280_temperature;BME280_humidity;BME280_pressure;Samples;Min_cycle;Max_cycle;Signal;HPM_P1;HPM_P2
2023/10/01 00:00:11;;;;;;;10.83;3.70;;;14.70;99.90;;;;;;5113969;28;20621;-52
2023/10/01 00:02:37;;;;;;;8.80;3.43;;;14.60;99.90;;;;;;5113602;28;20957;-52
2023/10/01 00:05:08;;;;;;;15.20;4.40;;;14.60;99.90;;;;;;5113585;28;20864;-53
2023/10/01 00:07:37;;;;;;;11.00;4.00;;;14.60;99.90;;;;;;5114058;28;20408;-53
2023/10/01 00:10:10;;;;;;;9.40;4.40;;;14.60;99.90;;;;;;5113564;28;20416;-54
2023/10/01 00:12:41;;;;;;;10.23;3.97;;;14.60;99.90;;;;;;5113884;28;20442;-50
2023/10/01 00:15:12;;;;;;;5.97;3.70;;;14.60;99.90;;;;;;5113791;28;20427;-53
2023/10/01 00:17:39;;;;;;;16.97;4.10;;;14.50;99.90;;;;;;5113798;28;20412;-52
2023/10/01 00:20:09;;;;;;;10.67;3.67;;;14.50;99.90;;;;;;5113611;28;20472;-52
2023/10/01 00:22:37;;;;;;;10.13;4.00;;;14.50;99.90;;;;;;5113709;28;20435;-52
2023/10/01 00:25:05;;;;;;;12.70;4.00;;;14.50;99.90;;;;;;5112926;28;20486;-52
2023/10/01 00:27:30;;;;;;;9.97;4.07;;;14.50;99.90;;;;;;5113757;28;20449;-52
2023/10/01 00:29:56;;;;;;;11.13;3.60;;;14.50;99.90;;;;;;5113240;28;20438;-53
2023/10/01 00:32:22;;;;;;;7.10;3.40;;;14.50;99.90;;;;;;5113457;28;20200;-52
2023/10/01 00:34:48;;;;;;;8.47;4.10;;;14.50;99.90;;;;;;5113302;28;20438;-52
2023/10/01 00:37:13;;;;;;;11.57;4.10;;;14.50;99.90;;;;;;5113373;28;20433;-53
2023/10/01 00:39:39;;;;;;;14.77;4.37;;;14.60;99.90;;;;;;5113333;28;20522;-52
2023/10/01 00:42:06;;;;;;;11.80;4.20;;;14.50;99.90;;;;;;5113164;28;20181;-52
2023/10/01 00:44:34;;;;;;;9.43;3.83;;;14.60;99.90;;;;;;5113326;28;20217;-52
2023/10/01 00:47:03;;;;;;;16.63;4.40;;;14.60;99.90;;;;;;5113342;28;20404;-52
2023/10/01 00:49:28;;;;;;;8.53;3.60;;;14.50;99.90;;;;;;5113454;28;20425;-52
2023/10/01 00:51:54;;;;;;;10.37;3.90;;;14.50;99.90;;;;;;5112696;28;20414;-52
2023/10/01 00:54:20;;;;;;;8.87;3.63;;;14.50;99.90;;;;;;5112804;28;20228;-53
2023/10/01 00:56:45;;;;;;;9.83;3.50;;;14.50;1.00;;;;;;5112972;28;20667;-51
2023/10/01 00:59:12;;;;;;;10.10;3.13;;;14.40;1.00;;;;;;5112451;28;20176;-52
2023/10/01 01:01:41;;;;;;;8.97;3.90;;;14.30;1.00;;;;;;5112992;28;20188;-52
2023/10/01 01:04:12;;;;;;;14.43;3.90;;;14.40;1.00;;;;;;5112510;28;20875;-52
2023/10/01 01:06:39;;;;;;;7.83;4.10;;;14.30;1.00;;;;;;5112919;28;20411;-52
2023/10/01 01:09:10;;;;;;;12.10;4.50;;;14.30;1.00;;;;;;5112740;28;20414;-52
2023/10/01 01:11:36;;;;;;;13.67;4.60;;;14.30;1.00;;;;;;5112810;28;20491;-52
2023/10/01 01:14:01;;;;;;;21.77;5.17;;;14.30;1.00;;;;;;5112643;28;20505;-53
2023/10/01 01:16:28;;;;;;;7.27;4.20;;;14.30;38.80;;;;;;5112697;28;20185;-53
2023/10/01 01:18:54;;;;;;;11.00;4.60;;;14.30;21.80;;;;;;5112639;28;20241;-52
2023/10/01 01:21:20;;;;;;;11.70;4.27;;;14.40;82.20;;;;;;5112636;28;20487;-53
2023/10/01 01:23:46;;;;;;;16.87;5.00;;;14.50;1.00;;;;;;5112341;28;20474;-52
2023/10/01 01:26:20;;;;;;;10.47;3.90;;;14.50;1.00;;;;;;5112435;28;20408;-53
2023/10/01 01:28:47;;;;;;;9.67;4.27;;;14.50;1.00;;;;;;5112597;28;20411;-51
2023/10/01 01:31:13;;;;;;;8.87;4.30;;;14.40;1.00;;;;;;5112341;28;20456;-52
2023/10/01 01:33:44;;;;;;;10.90;4.50;;;14.40;1.00;;;;;;5112496;28;20408;-52
2023/10/01 01:36:12;;;;;;;13.10;5.30;;;14.40;71.60;;;;;;5112541;28;20540;-52
2023/10/01 01:39:10;;;;;;;9.33;4.60;;;14.40;99.90;;;;;;5112468;28;20414;-52
2023/10/01 01:41:48;;;;;;;8.57;4.80;;;14.40;99.90;;;;;;5109201;28;20793;-52
2023/10/01 01:44:14;;;;;;;14.50;5.53;;;14.50;99.90;;;;;;5112154;28;20991;-52
2023/10/01 01:46:47;;;;;;;10.43;4.90;;;14.50;51.60;;;;;;5112437;28;20421;-54
2023/10/01 01:49:18;;;;;;;16.87;5.40;;;14.50;1.00;;;;;;5112567;28;20413;-52
2023/10/01 01:51:56;;;;;;;17.23;6.00;;;14.50;1.00;;;;;;5112484;28;20396;-52
2023/10/01 01:54:26;;;;;;;15.60;5.27;;;14.50;1.00;;;;;;5112392;28;20456;-51
2023/10/01 01:56:51;;;;;;;15.00;5.60;;;14.50;1.00;;;;;;5112323;28;20465;-52
2023/10/01 01:59:21;;;;;;;13.47;4.93;;;14.60;1.00;;;;;;5112130;28;20427;-51
2023/10/01 02:01:47;;;;;;;9.73;5.27;;;14.70;1.00;;;;;;5112256;28;20235;-51
2023/10/01 02:04:12;;;;;;;12.10;4.93;;;14.70;1.00;;;;;;5112192;28;20465;-52
2023/10/01 02:06:38;;;;;;;10.07;5.60;;;14.60;1.00;;;;;;5112172;28;20506;-52
2023/10/01 02:09:12;;;;;;;16.27;5.67;;;14.60;1.00;;;;;;5112490;28;20174;-52
2023/10/01 02:11:38;;;;;;;12.07;5.47;;;14.60;1.00;;;;;;5114526;28;20250;-52
2023/10/01 02:14:05;;;;;;;9.30;5.17;;;14.60;1.00;;;;;;5116321;28;20839;-52
2023/10/01 02:16:38;;;;;;;15.73;6.50;;;14.60;1.00;;;;;;5116303;28;20178;-52
2023/10/01 02:19:14;;;;;;;13.37;5.70;;;14.60;1.00;;;;;;5115998;28;20548;-52
2023/10/01 02:22:00;;;;;;;8.43;5.10;;;14.70;1.00;;;;;;5116004;28;20431;-51
2023/10/01 02:24:45;;;;;;;14.43;6.10;;;14.70;99.90;;;;;;5115421;28;20490;-52
2023/10/01 02:27:16;;;;;;;18.00;7.00;;;14.60;1.00;;;;;;5115661;28;20454;-52
2023/10/01 02:30:24;;;;;;;18.23;6.60;;;14.60;1.00;;;;;;5115805;28;20400;-52
2023/10/01 02:32:31;;;;;;;17.97;6.50;;;14.60;1.00;;;;;;5104709;28;20432;-52
2023/10/01 02:34:57;;;;;;;11.90;6.57;;;14.60;1.00;;;;;;5115463;28;20927;-52
2023/10/01 02:37:29;;;;;;;19.13;6.90;;;14.70;1.00;;;;;;5115322;28;20588;-52
2023/10/01 02:39:59;;;;;;;15.93;7.27;;;14.60;1.00;;;;;;5115697;28;20205;-51
2023/10/01 02:42:27;;;;;;;15.10;7.97;;;14.60;1.00;;;;;;5115526;28;20419;-52
2023/10/01 02:44:53;;;;;;;17.37;7.67;;;14.60;1.00;;;;;;5115375;28;20462;-50
2023/10/01 02:47:20;;;;;;;14.83;7.50;;;14.60;1.00;;;;;;5115407;28;20410;-53
2023/10/01 02:49:49;;;;;;;16.50;7.60;;;14.60;1.00;;;;;;5115345;28;20422;-51
2023/10/01 02:52:36;;;;;;;16.13;7.77;;;14.60;1.00;;;;;;5115408;28;20445;-52
2023/10/01 02:55:16;;;;;;;29.37;8.17;;;14.60;1.00;;;;;;5115573;28;20422;-52
2023/10/01 02:57:42;;;;;;;14.00;7.93;;;14.50;1.00;;;;;;5115237;28;20411;-51
2023/10/01 03:02:44;;;;;;;17.87;8.23;;;14.60;1.00;;;;;;5115239;28;20165;-52
2023/10/01 03:05:18;;;;;;;14.67;7.93;;;14.60;1.00;;;;;;5114665;28;20879;-51
2023/10/01 03:07:50;;;;;;;13.60;7.93;;;14.50;25.20;;;;;;5115187;28;20486;-51
2023/10/01 03:10:25;;;;;;;12.63;8.50;;;14.40;99.90;;;;;;5115042;28;20406;-52
2023/10/01 03:12:53;;;;;;;14.20;9.30;;;14.50;99.90;;;;;;5114934;28;20818;-52
2023/10/01 03:15:25;;;;;;;15.67;7.80;;;14.50;99.90;;;;;;5114614;28;20820;-52
2023/10/01 03:17:57;;;;;;;17.40;9.53;;;14.40;99.90;;;;;;5114524;28;20914;-52
2023/10/01 03:23:25;;;;;;;13.53;8.90;;;14.50;99.90;;;;;;5114981;28;20399;-52
2023/10/01 03:25:59;;;;;;;19.97;9.70;;;14.40;99.90;;;;;;5114448;28;20929;-51
2023/10/01 03:28:31;;;;;;;20.43;9.57;;;14.40;99.90;;;;;;5114688;28;20481;-52
2023/10/01 03:31:06;;;;;;;19.27;10.00;;;14.40;99.90;;;;;;5114690;28;20460;-51
2023/10/01 03:33:39;;;;;;;18.80;9.53;;;14.40;99.90;;;;;;5114558;28;20806;-51
2023/10/01 03:36:11;;;;;;;18.63;9.20;;;14.40;1.00;;;;;;5114436;28;20939;-51
2023/10/01 03:38:44;;;;;;;17.10;9.30;;;14.40;1.00;;;;;;5114470;28;20419;-52
2023/10/01 03:41:20;;;;;;;13.70;9.27;;;14.40;1.00;;;;;;5114193;28;20779;-51
2023/10/01 03:43:50;;;;;;;21.20;9.43;;;14.40;1.00;;;;;;5114349;28;20531;-51
2023/10/01 03:54:26;;;;;;;19.43;10.03;;;14.30;28.40;;;;;;5114197;28;20399;-52
2023/10/01 03:57:00;;;;;;;19.00;10.00;;;14.40;1.00;;;;;;5114116;28;20407;-51
2023/10/01 03:59:32;;;;;;;28.27;10.10;;;14.40;1.00;;;;;;5113877;28;20501;-52
2023/10/01 04:01:58;;;;;;;21.00;9.90;;;14.40;1.00;;;;;;5114048;28;20404;-51
2023/10/01 04:04:31;;;;;;;20.10;10.47;;;14.40;1.00;;;;;;5113803;28;20451;-51
2023/10/01 04:07:11;;;;;;;17.30;9.57;;;14.40;99.90;;;;;;5113567;28;20414;-51
2023/10/01 04:09:46;;;;;;;18.33;9.80;;;14.40;1.00;;;;;;5113838;28;20884;-51
2023/10/01 04:12:19;;;;;;;12.97;9.87;;;14.30;1.00;;;;;;5113516;28;20890;-52
2023/10/01 04:14:49;;;;;;;16.27;10.33;;;14.30;1.00;;;;;;5113787;28;20404;-52
2023/10/01 04:17:18;;;;;;;15.47;10.20;;;14.30;1.00;;;;;;5113502;28;20430;-51
2023/10/01 04:19:49;;;;;;;21.10;10.60;;;14.30;22.70;;;;;;5113689;28;20417;-52
2023/10/01 04:22:17;;;;;;;20.23;11.20;;;14.30;1.00;;;;;;5113595;28;20930;-52
2023/10/01 04:25:00;;;;;;;18.20;10.80;;;14.30;91.90;;;;;;5113094;28;21035;-52
2023/10/01 04:27:34;;;;;;;19.50;10.60;;;14.30;55.00;;;;;;5113330;28;20395;-51
2023/10/01 04:30:01;;;;;;;14.80;10.13;;;14.30;4.40;;;;;;5113507;28;20391;-51
2023/10/01 04:32:33;;;;;;;22.23;11.07;;;14.20;96.00;;;;;;5113440;28;20950;-52
2023/10/01 04:34:59;;;;;;;16.57;9.73;;;14.20;99.90;;;;;;5112592;28;20511;-50
2023/10/01 04:37:37;;;;;;;17.20;10.90;;;14.20;99.90;;;;;;5113316;28;20198;-52
2023/10/01 04:40:06;;;;;;;19.00;11.20;;;14.10;99.90;;;;;;5113287;28;20179;-52
2023/10/01 04:42:35;;;;;;;18.60;11.47;;;14.10;1.00;;;;;;5112871;27;20911;-52
2023/10/01 04:45:22;;;;;;;19.57;11.73;;;14.10;1.00;;;;;;5113102;28;20455;-52
2023/10/01 04:47:48;;;;;;;20.77;12.17;;;14.10;1.00;;;;;;5112814;28;20418;-49
2023/10/01 04:50:17;;;;;;;17.43;11.67;;;14.10;1.00;;;;;;5112841;28;20975;-51
2023/10/01 04:52:44;;;;;;;24.97;12.03;;;14.10;1.00;;;;;;5113089;28;20411;-50
2023/10/01 04:55:09;;;;;;;20.53;12.37;;;14.10;71.50;;;;;;5113000;28;20502;-52
2023/10/01 04:57:36;;;;;;;21.37;13.27;;;14.10;1.00;;;;;;5112961;28;20504;-52
2023/10/01 05:00:10;;;;;;;17.17;12.20;;;14.10;1.00;;;;;;5111786;28;20176;-51
2023/10/01 05:02:37;;;;;;;19.53;12.27;;;14.10;1.00;;;;;;5113323;28;20409;-50
2023/10/01 05:05:11;;;;;;;19.73;12.60;;;14.10;1.00;;;;;;5112470;28;20953;-50
2023/10/01 05:07:38;;;;;;;22.63;13.53;;;14.10;1.00;;;;;;5113225;28;20430;-51
2023/10/01 05:10:04;;;;;;;18.73;13.40;;;14.00;35.10;;;;;;5113035;28;20443;-50
2023/10/01 05:12:30;;;;;;;25.77;13.77;;;14.10;4.90;;;;;;5112798;28;20425;-51
2023/10/01 05:14:59;;;;;;;22.27;13.70;;;14.00;40.20;;;;;;5112887;28;20903;-50
2023/10/01 05:17:30;;;;;;;24.77;14.23;;;14.00;99.90;;;;;;5112701;28;20414;-51
2023/10/01 05:19:58;;;;;;;25.67;13.90;;;14.00;99.90;;;;;;5112729;28;20410;-50
2023/10/01 05:22:26;;;;;;;23.27;13.90;;;14.00;99.90;;;;;;5112522;28;20411;-52
2023/10/01 05:24:52;;;;;;;24.27;14.40;;;14.10;99.90;;;;;;5112784;28;20490;-51
2023/10/01 05:27:18;;;;;;;20.10;14.37;;;14.10;99.90;;;;;;5112640;28;20415;-51
2023/10/01 05:29:45;;;;;;;22.53;14.17;;;14.10;99.90;;;;;;5112704;28;20416;-51
2023/10/01 05:32:14;;;;;;;24.53;13.97;;;14.10;46.00;;;;;;5112669;28;20208;-52
2023/10/01 05:34:46;;;;;;;27.10;14.00;;;14.00;99.90;;;;;;5112566;28;20411;-52
2023/10/01 05:37:20;;;;;;;19.17;14.20;;;14.10;99.90;;;;;;5112584;28;20418;-51
2023/10/01 05:39:55;;;;;;;24.33;14.50;;;14.10;99.90;;;;;;5112604;28;20406;-51
2023/10/01 05:42:28;;;;;;;22.77;14.70;;;14.00;99.90;;;;;;5112564;28;20398;-52
2023/10/01 05:44:54;;;;;;;24.40;15.63;;;14.10;99.90;;;;;;5112431;28;20458;-52
2023/10/01 05:47:22;;;;;;;21.10;14.87;;;14.10;99.90;;;;;;5116090;28;21022;-51
2023/10/01 05:49:53;;;;;;;23.27;16.07;;;14.10;84.10;;;;;;5116291;28;20956;-50
2023/10/01 05:52:20;;;;;;;24.93;15.17;;;14.10;99.90;;;;;;5116601;28;20467;-51
2023/10/01 05:54:52;;;;;;;24.73;15.40;;;14.10;24.70;;;;;;5116493;28;20425;-50
2023/10/01 05:57:21;;;;;;;24.67;15.97;;;14.10;1.00;;;;;;5116480;28;20848;-50
2023/10/01 05:59:57;;;;;;;23.23;15.27;;;14.10;1.00;;;;;;5116420;28;20419;-50
2023/10/01 06:02:41;;;;;;;23.27;14.77;;;14.10;1.00;;;;;;5116427;28;20411;-52
2023/10/01 06:07:55;;;;;;;27.00;15.63;;;14.20;1.00;;;;;;5116603;28;20762;-51
2023/10/01 06:10:26;;;;;;;22.03;14.20;;;14.20;1.00;;;;;;5116276;28;20415;-51
2023/10/01 06:12:56;;;;;;;22.67;15.13;;;14.20;1.00;;;;;;5116219;28;20675;-51
2023/10/01 06:15:25;;;;;;;21.53;15.40;;;14.20;1.00;;;;;;5115914;28;20513;-52
2023/10/01 06:17:51;;;;;;;26.10;15.40;;;14.20;99.90;;;;;;5115797;28;20856;-51
2023/10/01 06:20:26;;;;;;;25.50;15.50;;;14.20;99.90;;;;;;5116083;28;20407;-51
2023/10/01 06:22:56;;;;;;;21.93;15.10;;;14.20;99.90;;;;;;5116100;28;20421;-51
2023/10/01 06:25:37;;;;;;;28.07;16.93;;;14.30;99.90;;;;;;5115414;28;20483;-51
2023/10/01 06:28:10;;;;;;;27.87;16.07;;;14.30;1.00;;;;;;5115969;28;20838;-51
2023/10/01 06:30:40;;;;;;;26.73;17.10;;;14.30;1.00;;;;;;5115823;28;20467;-50
2023/10/01 06:33:24;;;;;;;21.00;14.77;;;14.40;1.00;;;;;;5116242;28;20417;-51
2023/10/01 06:38:38;;;;;;;23.20;16.00;;;14.50;1.00;;;;;;5115877;28;20422;-51
2023/10/01 06:41:06;;;;;;;25.43;15.40;;;14.50;99.90;;;;;;5115764;28;20433;-52
2023/10/01 06:43:32;;;;;;;26.77;15.57;;;14.50;99.90;;;;;;5115904;27;20411;-51
2023/10/01 06:46:01;;;;;;;25.07;14.67;;;14.50;99.90;;;;;;5115902;27;20418;-51
2023/10/01 06:48:28;;;;;;;28.73;15.17;;;14.50;99.90;;;;;;5115877;28;20781;-52
2023/10/01 06:50:54;;;;;;;22.60;14.83;;;14.50;99.90;;;;;;5115239;28;20418;-51
2023/10/01 06:53:43;;;;;;;25.47;16.23;;;14.50;99.90;;;;;;5115587;28;20173;-51
2023/10/01 06:56:05;;;;;;;24.70;16.50;;;14.50;99.90;;;;;;5114965;28;20280;-51
2023/10/01 06:58:32;;;;;;;27.27;15.60;;;14.50;99.90;;;;;;5115577;28;20459;-51
2023/10/01 07:00:59;;;;;;;24.93;14.80;;;14.60;99.90;;;;;;5115345;28;20192;-52
2023/10/01 07:03:30;;;;;;;22.73;16.07;;;14.60;93.20;;;;;;5115281;28;20525;-51
2023/10/01 07:05:57;;;;;;;24.10;14.83;;;14.70;1.00;;;;;;5115168;28;20925;-51
2023/10/01 07:08:37;;;;;;;24.00;14.57;;;14.80;1.00;;;;;;5115176;28;20418;-52
2023/10/01 07:11:11;;;;;;;23.23;15.50;;;14.90;1.00;;;;;;5115085;28;20411;-52
2023/10/01 07:13:38;;;;;;;23.63;16.20;;;14.90;1.00;;;;;;5115505;28;20426;-52
2023/10/01 07:16:04;;;;;;;24.20;15.90;;;15.00;1.00;;;;;;5114664;28;20411;-52
2023/10/01 07:18:30;;;;;;;23.00;14.60;;;15.10;99.90;;;;;;5114950;28;20418;-51
2023/10/01 07:21:00;;;;;;;20.20;13.97;;;15.10;99.90;;;;;;5114943;28;20192;-52
2023/10/01 07:23:26;;;;;;;23.13;15.20;;;15.20;99.90;;;;;;5114579;28;20413;-52
2023/10/01 07:26:01;;;;;;;26.47;15.47;;;15.20;99.90;;;;;;5114414;28;20981;-52
2023/10/01 07:28:27;;;;;;;25.43;14.40;;;15.30;99.90;;;;;;5114700;28;20411;-51
2023/10/01 07:30:56;;;;;;;22.60;14.20;;;15.40;99.90;;;;;;5114646;28;20418;-52
2023/10/01 07:33:22;;;;;;;23.07;14.50;;;15.50;99.90;;;;;;5114590;28;20187;-52
2023/10/01 07:36:01;;;;;;;25.10;15.50;;;15.50;99.90;;;;;;5114550;28;20520;-51
2023/10/01 07:38:32;;;;;;;22.53;15.00;;;15.60;99.90;;;;;;5114579;28;20757;-52
2023/10/01 07:40:58;;;;;;;20.20;14.00;;;15.60;99.90;;;;;;5114598;28;20511;-51
2023/10/01 07:43:29;;;;;;;20.40;13.53;;;15.70;99.90;;;;;;5114184;28;20438;-51
2023/10/01 07:45:59;;;;;;;27.23;14.67;;;15.70;99.90;;;;;;5114335;28;20200;-52
2023/10/01 07:48:35;;;;;;;23.00;14.57;;;15.70;99.90;;;;;;5114499;28;20428;-52
2023/10/01 07:51:04;;;;;;;23.70;13.40;;;15.70;99.90;;;;;;5114265;28;20495;-52
2023/10/01 07:53:33;;;;;;;20.03;13.83;;;15.70;99.90;;;;;;5114251;28;20829;-52
2023/10/01 07:56:07;;;;;;;22.10;14.10;;;15.80;99.90;;;;;;5114151;28;20429;-53
2023/10/01 07:58:47;;;;;;;19.07;13.20;;;15.80;99.90;;;;;;5113890;28;20491;-52
2023/10/01 08:04:05;;;;;;;19.87;14.97;;;16.00;99.90;;;;;;5113883;28;20509;-53
2023/10/01 08:06:32;;;;;;;20.80;14.27;;;16.10;98.30;;;;;;5113986;28;20409;-52
2023/10/01 08:09:05;;;;;;;23.30;13.77;;;16.20;65.30;;;;;;5112824;28;20456;-51
2023/10/01 08:14:16;;;;;;;24.87;13.80;;;16.30;44.30;;;;;;5113787;28;20796;-51
2023/10/01 08:16:48;;;;;;;23.10;13.70;;;16.40;41.00;;;;;;5114010;28;20431;-51
2023/10/01 08:19:20;;;;;;;20.23;12.40;;;16.60;23.10;;;;;;5113757;28;20435;-53
2023/10/01 08:21:54;;;;;;;22.63;12.77;;;16.70;1.00;;;;;;5113642;28;20414;-52
2023/10/01 08:24:23;;;;;;;19.00;12.50;;;16.70;1.00;;;;;;5113023;28;20481;-51
2023/10/01 08:27:03;;;;;;;20.83;12.27;;;16.70;1.00;;;;;;5113512;28;20841;-52
2023/10/01 08:29:28;;;;;;;18.43;11.83;;;16.80;1.00;;;;;;5113547;28;20426;-53
2023/10/01 08:34:24;;;;;;;17.80;11.20;;;17.20;1.00;;;;;;5113469;28;20192;-52
2023/10/01 08:36:55;;;;;;;15.93;10.37;;;17.40;1.00;;;;;;5113281;28;20844;-52
2023/10/01 08:39:47;;;;;;;19.60;10.87;;;17.60;1.00;;;;;;5113361;28;20799;-52
2023/10/01 08:42:14;;;;;;;18.60;11.00;;;17.90;1.00;;;;;;5113426;28;20417;-55
2023/10/01 08:44:54;;;;;;;25.70;10.80;;;17.90;1.00;;;;;;5113608;28;20465;-52
2023/10/01 08:47:25;;;;;;;19.73;10.63;;;18.00;1.00;;;;;;5113243;28;20781;-53
2023/10/01 08:49:52;;;;;;;14.53;9.60;;;17.80;1.00;;;;;;5113248;28;20406;-52
2023/10/01 08:52:26;;;;;;;18.53;9.73;;;17.70;1.00;;;;;;5113101;28;20742;-53
2023/10/01 08:54:55;;;;;;;16.63;8.80;;;17.50;1.00;;;;;;5112894;28;20405;-54
2023/10/01 08:57:36;;;;;;;21.63;10.40;;;17.50;1.00;;;;;;5113056;28;20449;-53
2023/10/01 09:00:17;;;;;;;14.60;9.50;;;17.50;1.00;;;;;;5113017;28;20437;-54
2023/10/01 09:02:49;;;;;;;14.40;9.07;;;17.50;1.00;;;;;;5113005;28;20413;-53
2023/10/01 09:05:23;;;;;;;15.00;10.00;;;17.50;1.00;;;;;;5112612;28;20459;-52
2023/10/01 09:07:50;;;;;;;14.53;9.07;;;17.70;1.00;;;;;;5112665;28;20885;-51
2023/10/01 09:10:18;;;;;;;15.30;8.70;;;17.70;1.00;;;;;;5112851;28;20440;-53
2023/10/01 09:12:47;;;;;;;11.83;7.70;;;17.70;1.00;;;;;;5113053;28;20438;-53
2023/10/01 09:15:28;;;;;;;11.30;8.10;;;17.90;1.00;;;;;;5112726;28;20897;-53
2023/10/01 09:17:58;;;;;;;14.13;8.20;;;17.90;1.00;;;;;;5112719;28;20421;-52
2023/10/01 09:20:37;;;;;;;13.73;8.20;;;18.00;1.00;;;;;;5112558;28;20421;-52
2023/10/01 09:23:02;;;;;;;16.37;8.47;;;17.90;1.00;;;;;;5112682;28;20418;-54
2023/10/01 09:25:30;;;;;;;12.80;8.47;;;17.80;1.00;;;;;;5112135;28;20523;-53
2023/10/01 09:28:03;;;;;;;13.80;8.60;;;17.70;1.00;;;;;;5112561;28;20184;-52
2023/10/01 09:30:33;;;;;;;14.03;8.17;;;17.70;1.00;;;;;;5112703;28;20421;-54
2023/10/01 09:33:14;;;;;;;19.50;10.90;;;17.70;1.00;;;;;;5112469;28;20438;-52
2023/10/01 09:35:42;;;;;;;16.57;10.23;;;17.70;1.00;;;;;;5112876;28;20893;-53
2023/10/01 09:38:12;;;;;;;12.93;9.23;;;17.60;1.00;;;;;;5112531;28;20495;-54
2023/10/01 09:40:42;;;;;;;19.37;9.93;;;17.70;1.00;;;;;;5112598;28;20409;-52
2023/10/01 09:43:19;;;;;;;13.87;9.80;;;17.70;1.00;;;;;;5112459;28;20512;-53
2023/10/01 09:45:46;;;;;;;17.20;9.20;;;17.70;1.00;;;;;;5112470;28;20504;-53
2023/10/01 09:48:29;;;;;;;15.57;10.03;;;17.80;1.00;;;;;;5112708;28;20422;-50
2023/10/01 09:51:13;;;;;;;19.30;11.30;;;17.80;1.00;;;;;;5112565;28;20397;-53
2023/10/01 09:53:54;;;;;;;17.10;10.07;;;17.80;1.00;;;;;;5112413;28;20514;-53
2023/10/01 09:56:26;;;;;;;22.83;11.67;;;17.70;1.00;;;;;;5112139;28;20431;-53
2023/10/01 09:59:03;;;;;;;20.40;11.00;;;17.70;1.00;;;;;;5112546;28;20405;-52
2023/10/01 10:01:36;;;;;;;19.63;10.80;;;17.50;1.00;;;;;;5112471;28;20452;-53
2023/10/01 10:04:07;;;;;;;18.17;11.00;;;17.40;1.00;;;;;;5112286;28;20456;-52
2023/10/01 10:06:34;;;;;;;23.57;10.87;;;17.30;1.00;;;;;;5112394;28;20759;-52
2023/10/01 10:09:04;;;;;;;20.00;10.83;;;17.20;1.00;;;;;;5111957;28;20775;-53
2023/10/01 10:11:43;;;;;;;20.77;10.87;;;17.20;1.00;;;;;;5112280;28;20758;-52
2023/10/01 10:14:27;;;;;;;16.00;8.87;;;17.30;1.00;;;;;;5112484;28;20391;-53
2023/10/01 10:16:56;;;;;;;16.37;9.10;;;17.40;1.00;;;;;;5112211;28;20401;-52
2023/10/01 10:19:23;;;;;;;14.30;8.27;;;17.50;1.00;;;;;;5112146;28;20425;-52
2023/10/01 10:24:30;;;;;;;16.73;9.07;;;17.70;1.00;;;;;;5112074;28;20840;-52
2023/10/01 10:27:03;;;;;;;19.40;8.17;;;17.80;1.00;;;;;;5111961;28;20403;-52
2023/10/01 10:29:46;;;;;;;15.67;8.03;;;18.00;1.00;;;;;;5112113;28;20474;-52
2023/10/01 10:32:24;;;;;;;15.20;8.07;;;18.20;1.00;;;;;;5114071;28;20490;-54
2023/10/01 10:35:03;;;;;;;15.80;7.97;;;18.30;1.00;;;;;;5115725;28;20417;-53
2023/10/01 10:40:23;;;;;;;15.87;7.70;;;19.40;1.00;;;;;;5115493;28;20410;-52
2023/10/01 10:43:02;;;;;;;13.23;7.47;;;20.60;1.00;;;;;;5115541;28;20438;-51
2023/10/01 10:45:42;;;;;;;12.90;7.17;;;21.60;1.00;;;;;;5115527;28;20457;-52
2023/10/01 10:48:09;;;;;;;14.07;7.10;;;21.70;1.00;;;;;;5115538;28;20493;-51
2023/10/01 10:50:53;;;;;;;13.23;6.73;;;21.40;1.00;;;;;;5115660;28;20766;-53
2023/10/01 10:53:20;;;;;;;15.10;6.83;;;21.20;1.00;;;;;;5115389;28;20771;-53
2023/10/01 10:56:01;;;;;;;15.93;6.80;;;21.00;1.00;;;;;;5115355;28;20425;-53
2023/10/01 10:58:29;;;;;;;16.33;7.40;;;20.60;1.00;;;;;;5115101;28;20897;-53
2023/10/01 11:00:55;;;;;;;14.83;7.90;;;19.90;1.00;;;;;;5114959;28;20446;-52
2023/10/01 11:03:40;;;;;;;16.17;7.50;;;19.50;1.00;;;;;;5115209;28;20410;-52
2023/10/01 11:06:23;;;;;;;19.03;7.67;;;19.30;1.00;;;;;;5115216;28;20414;-52
2023/10/01 11:08:51;;;;;;;14.90;7.17;;;19.50;1.00;;;;;;5115073;28;20414;-50
2023/10/01 11:11:25;;;;;;;15.60;6.50;;;19.50;1.00;;;;;;5115083;28;20421;-52
2023/10/01 11:14:00;;;;;;;12.60;6.40;;;19.70;1.00;;;;;;5114968;28;20535;-52
2023/10/01 11:16:34;;;;;;;14.70;6.10;;;19.80;1.00;;;;;;5114985;28;20402;-52
2023/10/01 11:19:13;;;;;;;19.33;7.40;;;19.80;1.00;;;;;;5114964;28;20409;-51
2023/10/01 11:22:00;;;;;;;17.57;7.37;;;19.90;1.00;;;;;;5114575;28;20426;-52
2023/10/01 11:24:29;;;;;;;14.63;8.03;;;20.50;1.00;;;;;;5114396;28;20485;-51
2023/10/01 11:27:43;;;;;;;16.10;8.10;;;20.80;1.00;;;;;;5114726;28;20410;-52
2023/10/01 11:30:15;;;;;;;18.07;8.80;;;20.80;1.00;;;;;;5114693;28;20415;-52
2023/10/01 11:36:09;;;;;;;14.60;9.30;;;20.00;1.00;;;;;;5051628;28;20477;-52
2023/10/01 11:38:46;;;;;;;20.57;9.20;;;19.20;1.00;;;;;;5051681;28;20772;-53
2023/10/01 11:41:12;;;;;;;21.93;9.93;;;18.80;1.00;;;;;;5092061;28;20831;-52
2023/10/01 11:43:40;;;;;;;24.07;10.23;;;18.30;1.00;;;;;;5114134;28;20415;-52
2023/10/01 11:46:27;;;;;;;22.00;9.83;;;18.10;1.00;;;;;;5114396;28;20454;-52
2023/10/01 11:49:02;;;;;;;20.87;9.73;;;18.00;1.00;;;;;;5114462;28;20394;-53
2023/10/01 11:51:31;;;;;;;21.07;11.10;;;17.90;1.00;;;;;;5114339;28;20403;-51
2023/10/01 11:54:09;;;;;;;22.17;12.17;;;17.80;1.00;;;;;;5114187;28;20771;-51
2023/10/01 11:56:41;;;;;;;27.13;12.70;;;17.60;8.60;;;;;;5113905;28;20902;-49
2023/10/01 11:59:08;;;;;;;23.27;11.53;;;17.50;92.20;;;;;;5114060;28;20503;-51
2023/10/01 12:01:47;;;;;;;23.67;13.40;;;17.40;99.90;;;;;;5113750;28;20421;-52
2023/10/01 12:04:48;;;;;;;24.57;13.40;;;17.40;99.90;;;;;;5114395;28;20809;-51
2023/10/01 12:07:15;;;;;;;20.50;12.00;;;17.40;1.00;;;;;;5113916;28;20852;-50
2023/10/01 12:09:52;;;;;;;24.03;12.10;;;17.50;1.00;;;;;;5113985;28;20448;-51
2023/10/01 12:12:25;;;;;;;19.40;11.40;;;17.60;1.00;;;;;;5113939;28;20429;-51
2023/10/01 12:14:55;;;;;;;28.87;12.13;;;17.50;1.00;;;;;;5114001;28;20406;-51
2023/10/01 12:17:25;;;;;;;22.00;12.77;;;17.40;1.00;;;;;;5113837;28;20406;-51
2023/10/01 12:19:54;;;;;;;19.63;11.60;;;17.20;1.00;;;;;;5113778;28;20398;-51
2023/10/01 12:22:26;;;;;;;21.47;11.47;;;17.20;99.90;;;;;;5113456;28;20453;-51
2023/10/01 12:25:02;;;;;;;18.87;11.33;;;17.20;69.40;;;;;;5113165;28;20480;-52
2023/10/01 12:27:37;;;;;;;19.67;10.60;;;17.00;99.90;;;;;;5113391;28;21115;-52
2023/10/01 12:30:10;;;;;;;18.10;11.60;;;17.00;1.00;;;;;;5113312;28;20409;-51
2023/10/01 12:32:42;;;;;;;19.03;11.50;;;16.90;99.90;;;;;;5113357;28;20410;-50
2023/10/01 12:35:20;;;;;;;20.67;11.37;;;16.80;99.90;;;;;;5113650;28;20423;-51
2023/10/01 12:37:45;;;;;;;18.40;10.87;;;16.70;99.90;;;;;;5113969;28;20576;-51
2023/10/01 12:40:17;;;;;;;17.27;10.57;;;16.70;99.90;;;;;;5113603;28;20901;-52
2023/10/01 12:42:50;;;;;;;22.97;11.83;;;16.70;99.90;;;;;;5113547;28;20216;-50
2023/10/01 12:45:27;;;;;;;15.70;11.10;;;16.60;1.00;;;;;;5113355;28;20942;-50
2023/10/01 12:47:53;;;;;;;17.80;11.23;;;16.50;99.90;;;;;;5113243;28;20413;-51
2023/10/01 12:50:28;;;;;;;20.17;13.07;;;16.40;1.00;;;;;;5113381;28;20416;-52
2023/10/01 12:53:19;;;;;;;21.53;12.40;;;16.30;29.60;;;;;;5113175;28;20170;-49
2023/10/01 12:55:51;;;;;;;18.30;12.70;;;16.30;99.90;;;;;;5112804;28;20430;-51
2023/10/01 12:58:29;;;;;;;18.70;12.43;;;16.20;1.00;;;;;;5113419;28;20397;-52
2023/10/01 13:00:57;;;;;;;20.90;12.43;;;16.20;99.90;;;;;;5112847;28;20916;-49
2023/10/01 13:03:23;;;;;;;17.67;12.37;;;16.20;99.90;;;;;;5113140;28;20415;-50
2023/10/01 13:05:51;;;;;;;20.70;12.97;;;16.20;1.00;;;;;;5112821;28;20556;-51
2023/10/01 13:08:27;;;;;;;21.70;12.73;;;16.30;99.90;;;;;;5112872;28;20917;-51
2023/10/01 13:10:59;;;;;;;17.90;12.33;;;16.30;1.00;;;;;;5112918;28;20440;-50
2023/10/01 13:13:30;;;;;;;17.63;13.73;;;16.30;1.00;;;;;;5112873;28;20415;-50
2023/10/01 13:16:00;;;;;;;19.20;13.17;;;16.30;11.80;;;;;;5112835;28;20486;-50
2023/10/01 13:18:29;;;;;;;19.30;12.97;;;16.30;99.90;;;;;;5112581;28;20424;-52
2023/10/01 13:21:06;;;;;;;21.37;13.90;;;16.20;99.90;;;;;;5112796;28;20513;-51
2023/10/01 13:23:41;;;;;;;25.37;14.00;;;16.10;99.90;;;;;;5112563;28;20469;-52
2023/10/01 13:26:31;;;;;;;18.80;13.50;;;16.20;99.90;;;;;;5112721;28;20830;-50
2023/10/01 13:29:00;;;;;;;22.10;13.90;;;16.30;1.00;;;;;;5112453;28;20492;-51
2023/10/01 13:34:06;;;;;;;19.50;12.67;;;16.30;99.90;;;;;;5112686;28;20470;-50
2023/10/01 13:36:47;;;;;;;17.57;12.80;;;16.30;34.50;;;;;;5111077;28;20430;-50
2023/10/01 13:39:44;;;;;;;22.10;13.63;;;16.30;99.90;;;;;;5111159;28;20474;-50